Rechercher aéroport 
image banner adimage banner adimage banner ad
image banner ad

CA43 - Barton Memorial Hospital

Situé à South Lake Tahoe, United States

ICAO - CA43, IATA -

Données fournies par Airmate  

Information générale

Coordonnées: N38°54'41" W119°59'49"
Élévation : 6298 feet MSL.
Variation magnétique : 16° East
Voir autres Aéroports à California

Données opérationnelles

Special qualification required
Heure actuelle UTC:
Heure actuelle locale:
Météo à : KTVL - Lake Tahoe ( 2 km )
METAR: KTVL 270553Z AUTO 20006KT 10SM -RA OVC100 18/11 A3027 RMK AO2 RAB26 SLP172 P0001 60001 T01780106 10200 20178 51018
TAF: KTVL 270557Z 2706/2806 18005KT P6SM VCSH SCT050 BKN080 FM271000 19002KT 6SM HZ OVC100 FM272000 03008KT 5SM HZ SCT030 BKN050 BKN090
Voir NOTAMs / SUP AIP / TFR affectant cet aéroport [VIEW]
Fréquences de communication: [VIEW]

Pistes:

Coordonnées de l'aéroport

Adresse: South Lake Tahoe United States

Vue satellite de CA43